sensor_id;sensor_type;location;lat;lon;timestamp;pressure;altitude;pressure_sealevel;temperature;humidity
60646;BME280;46462;32.608;-117.032;2023-12-20T00:01:03;99079.77;;;24.19;40.76
60646;BME280;46462;32.608;-117.032;2023-12-20T00:03:33;99087.14;;;24.35;40.57
60646;BME280;46462;32.608;-117.032;2023-12-20T00:06:04;99084.47;;;24.28;40.68
60646;BME280;46462;32.608;-117.032;2023-12-20T00:08:35;99085.40;;;24.25;40.84
60646;BME280;46462;32.608;-117.032;2023-12-20T00:11:05;99085.73;;;24.21;40.84
60646;BME280;46462;32.608;-117.032;2023-12-20T00:13:36;99084.03;;;24.20;41.01
60646;BME280;46462;32.608;-117.032;2023-12-20T00:16:07;99081.32;;;24.22;40.85
60646;BME280;46462;32.608;-117.032;2023-12-20T00:18:38;99081.14;;;24.25;40.86
60646;BME280;46462;32.608;-117.032;2023-12-20T00:21:08;99081.56;;;24.26;40.73
60646;BME280;46462;32.608;-117.032;2023-12-20T00:23:39;99075.80;;;24.27;40.73
60646;BME280;46462;32.608;-117.032;2023-12-20T00:26:10;99077.11;;;24.28;40.69
60646;BME280;46462;32.608;-117.032;2023-12-20T00:28:41;99073.03;;;24.28;40.57
60646;BME280;46462;32.608;-117.032;2023-12-20T00:31:12;99076.73;;;24.29;40.47
60646;BME280;46462;32.608;-117.032;2023-12-20T00:33:42;99086.13;;;24.29;40.37
60646;BME280;46462;32.608;-117.032;2023-12-20T00:36:13;99087.46;;;24.30;40.26
60646;BME280;46462;32.608;-117.032;2023-12-20T00:38:44;99088.88;;;24.30;40.29
60646;BME280;46462;32.608;-117.032;2023-12-20T00:41:14;99089.04;;;24.30;40.23
60646;BME280;46462;32.608;-117.032;2023-12-20T00:43:45;99094.90;;;24.29;40.22
60646;BME280;46462;32.608;-117.032;2023-12-20T00:46:16;99098.98;;;24.28;40.12
60646;BME280;46462;32.608;-117.032;2023-12-20T00:48:47;99102.21;;;24.29;40.10
60646;BME280;46462;32.608;-117.032;2023-12-20T00:51:17;99102.83;;;24.29;40.11
60646;BME280;46462;32.608;-117.032;2023-12-20T00:53:51;99103.81;;;24.28;40.07
60646;BME280;46462;32.608;-117.032;2023-12-20T00:56:19;99104.20;;;24.28;40.03
60646;BME280;46462;32.608;-117.032;2023-12-20T00:58:50;99104.68;;;24.29;39.95
60646;BME280;46462;32.608;-117.032;2023-12-20T01:01:21;99107.99;;;24.27;39.88
60646;BME280;46462;32.608;-117.032;2023-12-20T01:03:51;99108.07;;;24.26;39.94
60646;BME280;46462;32.608;-117.032;2023-12-20T01:06:22;99106.42;;;24.28;39.97
60646;BME280;46462;32.608;-117.032;2023-12-20T01:08:53;99111.01;;;24.28;39.81
60646;BME280;46462;32.608;-117.032;2023-12-20T01:11:23;99113.53;;;24.27;39.71
60646;BME280;46462;32.608;-117.032;2023-12-20T01:13:54;99108.82;;;24.27;39.84
60646;BME280;46462;32.608;-117.032;2023-12-20T01:16:25;99111.83;;;24.27;39.77
60646;BME280;46462;32.608;-117.032;2023-12-20T01:18:56;99110.30;;;24.26;39.81
60646;BME280;46462;32.608;-117.032;2023-12-20T01:21:27;99107.20;;;24.27;39.88
60646;BME280;46462;32.608;-117.032;2023-12-20T01:23:57;99116.79;;;24.27;39.94
60646;BME280;46462;32.608;-117.032;2023-12-20T01:26:28;99125.46;;;24.26;39.89
60646;BME280;46462;32.608;-117.032;2023-12-20T01:28:58;99134.95;;;24.25;39.92
60646;BME280;46462;32.608;-117.032;2023-12-20T01:31:29;99140.22;;;24.25;39.98
60646;BME280;46462;32.608;-117.032;2023-12-20T01:34:00;99144.26;;;24.24;40.05
60646;BME280;46462;32.608;-117.032;2023-12-20T01:36:31;99145.21;;;24.24;40.12
60646;BME280;46462;32.608;-117.032;2023-12-20T01:39:02;99147.35;;;24.24;40.09
60646;BME280;46462;32.608;-117.032;2023-12-20T01:41:32;99145.91;;;24.25;40.15
60646;BME280;46462;32.608;-117.032;2023-12-20T01:44:03;99144.54;;;24.23;40.11
60646;BME280;46462;32.608;-117.032;2023-12-20T01:46:34;99148.78;;;24.22;40.20
60646;BME280;46462;32.608;-117.032;2023-12-20T01:49:05;99152.18;;;24.19;40.27
60646;BME280;46462;32.608;-117.032;2023-12-20T01:51:35;99154.36;;;24.17;40.29
60646;BME280;46462;32.608;-117.032;2023-12-20T01:54:05;99152.14;;;24.15;40.34
60646;BME280;46462;32.608;-117.032;2023-12-20T01:56:36;99152.52;;;24.14;40.40
60646;BME280;46462;32.608;-117.032;2023-12-20T01:59:07;99154.00;;;24.11;40.43
60646;BME280;46462;32.608;-117.032;2023-12-20T02:01:38;99161.05;;;24.10;40.46
60646;BME280;46462;32.608;-117.032;2023-12-20T02:04:09;99168.37;;;24.09;40.59
60646;BME280;46462;32.608;-117.032;2023-12-20T02:06:40;99175.24;;;24.08;40.54
60646;BME280;46462;32.608;-117.032;2023-12-20T02:09:10;99174.74;;;24.09;40.62
60646;BME280;46462;32.608;-117.032;2023-12-20T02:11:41;99169.32;;;24.08;40.66
60646;BME280;46462;32.608;-117.032;2023-12-20T02:14:11;99165.04;;;24.10;40.76
60646;BME280;46462;32.608;-117.032;2023-12-20T02:16:42;99170.01;;;24.14;40.63
60646;BME280;46462;32.608;-117.032;2023-12-20T02:19:14;99170.46;;;24.14;40.60
60646;BME280;46462;32.608;-117.032;2023-12-20T02:21:43;99180.72;;;24.16;40.64
60646;BME280;46462;32.608;-117.032;2023-12-20T02:24:14;99186.32;;;24.15;40.64
60646;BME280;46462;32.608;-117.032;2023-12-20T02:26:45;99191.77;;;24.16;40.66
60646;BME280;46462;32.608;-117.032;2023-12-20T02:29:16;99187.39;;;24.16;40.69
60646;BME280;46462;32.608;-117.032;2023-12-20T02:31:46;99179.32;;;24.18;40.67
60646;BME280;46462;32.608;-117.032;2023-12-20T02:34:17;99168.94;;;24.16;40.81
60646;BME280;46462;32.608;-117.032;2023-12-20T02:36:48;99161.40;;;24.15;40.78
60646;BME280;46462;32.608;-117.032;2023-12-20T02:39:20;99154.91;;;24.15;40.76
60646;BME280;46462;32.608;-117.032;2023-12-20T02:41:49;99151.95;;;24.15;40.71
60646;BME280;46462;32.608;-117.032;2023-12-20T02:44:20;99148.06;;;24.15;40.78
60646;BME280;46462;32.608;-117.032;2023-12-20T02:46:51;99141.67;;;24.15;40.88
60646;BME280;46462;32.608;-117.032;2023-12-20T02:49:22;99133.87;;;24.14;40.89
60646;BME280;46462;32.608;-117.032;2023-12-20T02:51:52;99141.75;;;24.13;40.84
60646;BME280;46462;32.608;-117.032;2023-12-20T02:54:23;99151.39;;;24.13;40.95
60646;BME280;46462;32.608;-117.032;2023-12-20T02:56:54;99159.83;;;24.13;40.95
60646;BME280;46462;32.608;-117.032;2023-12-20T02:59:24;99163.67;;;24.13;40.99
60646;BME280;46462;32.608;-117.032;2023-12-20T03:01:55;99165.51;;;24.14;41.02
60646;BME280;46462;32.608;-117.032;2023-12-20T03:04:26;99162.15;;;24.12;40.98
60646;BME280;46462;32.608;-117.032;2023-12-20T03:06:57;99156.26;;;24.12;40.99
60646;BME280;46462;32.608;-117.032;2023-12-20T03:09:27;99162.35;;;24.12;41.04
60646;BME280;46462;32.608;-117.032;2023-12-20T03:11:58;99171.42;;;24.13;40.97
60646;BME280;46462;32.608;-117.032;2023-12-20T03:14:29;99181.63;;;24.11;41.06
60646;BME280;46462;32.608;-117.032;2023-12-20T03:17:00;99188.04;;;24.12;41.10
60646;BME280;46462;32.608;-117.032;2023-12-20T03:19:30;99187.86;;;24.10;41.21
60646;BME280;46462;32.608;-117.032;2023-12-20T03:22:01;99179.69;;;24.09;41.27
60646;BME280;46462;32.608;-117.032;2023-12-20T03:24:31;99168.87;;;24.09;41.32
60646;BME280;46462;32.608;-117.032;2023-12-20T03:27:02;99158.79;;;24.09;41.27
60646;BME280;46462;32.608;-117.032;2023-12-20T03:29:33;99165.12;;;24.08;41.33
60646;BME280;46462;32.608;-117.032;2023-12-20T03:32:04;99184.30;;;24.09;41.34
60646;BME280;46462;32.608;-117.032;2023-12-20T03:34:34;99207.82;;;24.08;41.40
60646;BME280;46462;32.608;-117.032;2023-12-20T03:37:05;99214.83;;;24.09;41.44
60646;BME280;46462;32.608;-117.032;2023-12-20T03:39:36;99217.04;;;24.06;41.47
60646;BME280;46462;32.608;-117.032;2023-12-20T03:42:07;99218.90;;;24.07;41.56
60646;BME280;46462;32.608;-117.032;2023-12-20T03:44:39;99211.36;;;24.06;41.64
60646;BME280;46462;32.608;-117.032;2023-12-20T03:47:08;99203.88;;;24.03;41.73
60646;BME280;46462;32.608;-117.032;2023-12-20T03:49:39;99178.13;;;24.00;41.74
60646;BME280;46462;32.608;-117.032;2023-12-20T03:52:10;99143.48;;;23.99;41.75
60646;BME280;46462;32.608;-117.032;2023-12-20T03:54:40;99132.86;;;23.98;41.68
60646;BME280;46462;32.608;-117.032;2023-12-20T03:57:11;99142.99;;;23.97;41.79
60646;BME280;46462;32.608;-117.032;2023-12-20T03:59:42;99149.40;;;23.94;41.95
60646;BME280;46462;32.608;-117.032;2023-12-20T04:02:13;99159.56;;;23.94;42.00
60646;BME280;46462;32.608;-117.032;2023-12-20T04:04:43;99175.06;;;23.91;42.04
60646;BME280;46462;32.608;-117.032;2023-12-20T04:07:14;99186.08;;;23.92;42.18
60646;BME280;46462;32.608;-117.032;2023-12-20T04:09:45;99186.76;;;23.91;42.35
60646;BME280;46462;32.608;-117.032;2023-12-20T04:12:16;99179.78;;;23.91;42.47
60646;BME280;46462;32.608;-117.032;2023-12-20T04:14:46;99182.44;;;23.91;42.43
60646;BME280;46462;32.608;-117.032;2023-12-20T04:17:17;99181.29;;;23.94;42.40
60646;BME280;46462;32.608;-117.032;2023-12-20T04:19:48;99187.91;;;23.95;42.33
60646;BME280;46462;32.608;-117.032;2023-12-20T04:22:19;99193.52;;;23.97;42.46
60646;BME280;46462;32.608;-117.032;2023-12-20T04:24:49;99198.33;;;23.97;42.41
60646;BME280;46462;32.608;-117.032;2023-12-20T04:27:20;99188.54;;;23.98;42.36
60646;BME280;46462;32.608;-117.032;2023-12-20T04:29:50;99185.31;;;23.97;42.43
60646;BME280;46462;32.608;-117.032;2023-12-20T04:32:21;99177.52;;;23.99;42.42
60646;BME280;46462;32.608;-117.032;2023-12-20T04:34:52;99177.81;;;23.98;42.43
60646;BME280;46462;32.608;-117.032;2023-12-20T04:37:22;99187.61;;;23.98;42.45
60646;BME280;46462;32.608;-117.032;2023-12-20T04:39:53;99192.86;;;23.96;42.53
60646;BME280;46462;32.608;-117.032;2023-12-20T04:42:24;99189.48;;;23.96;42.56
60646;BME280;46462;32.608;-117.032;2023-12-20T04:44:55;99183.56;;;23.94;42.61
60646;BME280;46462;32.608;-117.032;2023-12-20T04:47:25;99185.43;;;23.95;42.67
60646;BME280;46462;32.608;-117.032;2023-12-20T04:49:56;99188.66;;;23.95;42.71
60646;BME280;46462;32.608;-117.032;2023-12-20T04:52:26;99180.59;;;23.94;42.67
60646;BME280;46462;32.608;-117.032;2023-12-20T04:54:57;99167.82;;;23.93;42.56
60646;BME280;46462;32.608;-117.032;2023-12-20T04:57:28;99171.30;;;23.93;42.63
60646;BME280;46462;32.608;-117.032;2023-12-20T04:59:58;99186.29;;;23.92;42.72
60646;BME280;46462;32.608;-117.032;2023-12-20T05:02:29;99184.73;;;23.91;42.65
60646;BME280;46462;32.608;-117.032;2023-12-20T05:05:00;99188.15;;;23.89;42.85
60646;BME280;46462;32.608;-117.032;2023-12-20T05:07:31;99191.55;;;23.90;42.93
60646;BME280;46462;32.608;-117.032;2023-12-20T05:10:02;99190.61;;;23.89;42.98
60646;BME280;46462;32.608;-117.032;2023-12-20T05:12:32;99195.13;;;23.90;43.03
60646;BME280;46462;32.608;-117.032;2023-12-20T05:15:08;99197.55;;;23.90;43.10
60646;BME280;46462;32.608;-117.032;2023-12-20T05:17:37;99197.27;;;23.90;43.02
60646;BME280;46462;32.608;-117.032;2023-12-20T05:20:09;99197.69;;;23.88;43.11
60646;BME280;46462;32.608;-117.032;2023-12-20T05:22:38;99204.98;;;23.90;43.00
60646;BME280;46462;32.608;-117.032;2023-12-20T05:25:09;99202.82;;;23.88;43.10
60646;BME280;46462;32.608;-117.032;2023-12-20T05:27:40;99198.24;;;23.88;43.17
60646;BME280;46462;32.608;-117.032;2023-12-20T05:30:11;99200.26;;;23.86;43.21
60646;BME280;46462;32.608;-117.032;2023-12-20T05:32:41;99203.08;;;23.86;43.28
60646;BME280;46462;32.608;-117.032;2023-12-20T05:35:12;99201.95;;;23.85;43.32
60646;BME280;46462;32.608;-117.032;2023-12-20T05:37:42;99203.08;;;23.85;43.41
60646;BME280;46462;32.608;-117.032;2023-12-20T05:40:13;99207.42;;;23.83;43.58
60646;BME280;46462;32.608;-117.032;2023-12-20T05:42:44;99206.88;;;23.84;43.28
60646;BME280;46462;32.608;-117.032;2023-12-20T05:45:15;99201.97;;;23.83;43.31
60646;BME280;46462;32.608;-117.032;2023-12-20T05:47:45;99201.30;;;23.81;43.46
60646;BME280;46462;32.608;-117.032;2023-12-20T05:50:16;99197.19;;;23.78;43.74
60646;BME280;46462;32.608;-117.032;2023-12-20T05:52:47;99194.08;;;23.77;43.60
60646;BME280;46462;32.608;-117.032;2023-12-20T05:55:18;99192.42;;;23.75;43.66
60646;BME280;46462;32.608;-117.032;2023-12-20T05:57:48;99192.77;;;23.73;43.76
60646;BME280;46462;32.608;-117.032;2023-12-20T06:00:19;99194.69;;;23.69;43.73
60646;BME280;46462;32.608;-117.032;2023-12-20T06:02:50;99195.50;;;23.69;43.82
60646;BME280;46462;32.608;-117.032;2023-12-20T06:05:20;99194.07;;;23.67;43.84
60646;BME280;46462;32.608;-117.032;2023-12-20T06:07:51;99190.10;;;23.68;43.86
60646;BME280;46462;32.608;-117.032;2023-12-20T06:10:22;99187.50;;;23.66;43.93
60646;BME280;46462;32.608;-117.032;2023-12-20T06:12:53;99186.60;;;23.66;44.10
60646;BME280;46462;32.608;-117.032;2023-12-20T06:15:23;99191.26;;;23.65;43.92
60646;BME280;46462;32.608;-117.032;2023-12-20T06:17:54;99182.62;;;23.69;43.95
60646;BME280;46462;32.608;-117.032;2023-12-20T06:20:25;99177.47;;;23.70;43.99
60646;BME280;46462;32.608;-117.032;2023-12-20T06:22:56;99172.79;;;23.72;44.00
60646;BME280;46462;32.608;-117.032;2023-12-20T06:25:26;99167.69;;;23.72;43.99
60646;BME280;46462;32.608;-117.032;2023-12-20T06:27:57;99168.52;;;23.76;43.83
60646;BME280;46462;32.608;-117.032;2023-12-20T06:30:28;99171.63;;;23.73;43.74
60646;BME280;46462;32.608;-117.032;2023-12-20T06:32:59;99166.81;;;23.72;43.92
60646;BME280;46462;32.608;-117.032;2023-12-20T06:35:29;99165.04;;;23.71;44.03
60646;BME280;46462;32.608;-117.032;2023-12-20T06:37:59;99163.46;;;23.70;44.10
60646;BME280;46462;32.608;-117.032;2023-12-20T06:40:30;99165.49;;;23.68;43.98
60646;BME280;46462;32.608;-117.032;2023-12-20T06:43:01;99163.13;;;23.68;44.14
60646;BME280;46462;32.608;-117.032;2023-12-20T06:45:32;99160.04;;;23.67;44.18
60646;BME280;46462;32.608;-117.032;2023-12-20T06:48:03;99157.05;;;23.67;44.18
60646;BME280;46462;32.608;-117.032;2023-12-20T06:50:33;99154.76;;;23.66;44.34
60646;BME280;46462;32.608;-117.032;2023-12-20T06:53:04;99156.75;;;23.68;44.33
60646;BME280;46462;32.608;-117.032;2023-12-20T06:55:35;99152.28;;;23.66;44.37
60646;BME280;46462;32.608;-117.032;2023-12-20T06:58:04;99154.58;;;23.66;44.29
60646;BME280;46462;32.608;-117.032;2023-12-20T07:00:35;99154.04;;;23.65;44.32
60646;BME280;46462;32.608;-117.032;2023-12-20T07:03:06;99155.10;;;23.64;44.37
60646;BME280;46462;32.608;-117.032;2023-12-20T07:05:36;99153.78;;;23.63;44.37
60646;BME280;46462;32.608;-117.032;2023-12-20T07:08:07;99150.51;;;23.61;44.43
60646;BME280;46462;32.608;-117.032;2023-12-20T07:10:38;99152.47;;;23.59;44.40
60646;BME280;46462;32.608;-117.032;2023-12-20T07:13:09;99153.59;;;23.60;44.36
60646;BME280;46462;32.608;-117.032;2023-12-20T07:15:40;99152.85;;;23.55;44.40
60646;BME280;46462;32.608;-117.032;2023-12-20T07:18:10;99152.49;;;23.57;44.38
60646;BME280;46462;32.608;-117.032;2023-12-20T07:20:41;99150.32;;;23.52;44.49
60646;BME280;46462;32.608;-117.032;2023-12-20T07:23:12;99144.27;;;23.55;44.49
60646;BME280;46462;32.608;-117.032;2023-12-20T07:25:43;99139.15;;;23.55;44.49
60646;BME280;46462;32.608;-117.032;2023-12-20T07:28:13;99141.64;;;23.54;44.41
60646;BME280;46462;32.608;-117.032;2023-12-20T07:30:44;99138.74;;;23.51;44.43
60646;BME280;46462;32.608;-117.032;2023-12-20T07:33:14;99135.26;;;23.50;44.45
60646;BME280;46462;32.608;-117.032;2023-12-20T07:35:45;99134.85;;;23.48;44.53
60646;BME280;46462;32.608;-117.032;2023-12-20T07:38:16;99133.13;;;23.48;44.54
60646;BME280;46462;32.608;-117.032;2023-12-20T07:40:47;99129.10;;;23.46;44.48
60646;BME280;46462;32.608;-117.032;2023-12-20T07:43:17;99127.43;;;23.46;44.48
60646;BME280;46462;32.608;-117.032;2023-12-20T07:45:48;99124.24;;;23.47;44.55
60646;BME280;46462;32.608;-117.032;2023-12-20T07:48:19;99116.98;;;23.45;44.69
60646;BME280;46462;32.608;-117.032;2023-12-20T07:50:49;99112.03;;;23.43;44.67
60646;BME280;46462;32.608;-117.032;2023-12-20T07:53:20;99111.33;;;23.41;44.70
60646;BME280;46462;32.608;-117.032;2023-12-20T07:55:51;99109.83;;;23.37;44.63
60646;BME280;46462;32.608;-117.032;2023-12-20T07:58:22;99106.70;;;23.37;44.56
60646;BME280;46462;32.608;-117.032;2023-12-20T08:00:52;99106.89;;;23.35;44.60
60646;BME280;46462;32.608;-117.032;2023-12-20T08:03:23;99103.21;;;23.32;44.68
60646;BME280;46462;32.608;-117.032;2023-12-20T08:05:54;99097.17;;;23.27;44.70
60646;BME280;46462;32.608;-117.032;2023-12-20T08:08:24;99089.65;;;23.25;44.91
60646;BME280;46462;32.608;-117.032;2023-12-20T08:10:55;99083.45;;;23.27;45.01
60646;BME280;46462;32.608;-117.032;2023-12-20T08:13:26;99084.99;;;23.26;44.88
60646;BME280;46462;32.608;-117.032;2023-12-20T08:15:57;99083.23;;;23.24;44.64
60646;BME280;46462;32.608;-117.032;2023-12-20T08:18:27;99083.94;;;23.22;44.79
60646;BME280;46462;32.608;-117.032;2023-12-20T08:20:58;99082.07;;;23.21;45.07
60646;BME280;46462;32.608;-117.032;2023-12-20T08:23:29;99078.15;;;23.26;44.72
60646;BME280;46462;32.608;-117.032;2023-12-20T08:26:04;99078.90;;;23.26;44.80
60646;BME280;46462;32.608;-117.032;2023-12-20T08:28:30;99082.38;;;23.27;44.87
60646;BME280;46462;32.608;-117.032;2023-12-20T08:31:01;99082.22;;;23.26;44.79
60646;BME280;46462;32.608;-117.032;2023-12-20T08:33:32;99081.83;;;23.29;44.76
60646;BME280;46462;32.608;-117.032;2023-12-20T08:36:03;99079.47;;;23.28;44.81
60646;BME280;46462;32.608;-117.032;2023-12-20T08:38:33;99076.77;;;23.26;44.68
60646;BME280;46462;32.608;-117.032;2023-12-20T08:41:04;99075.18;;;23.21;44.72
60646;BME280;46462;32.608;-117.032;2023-12-20T08:43:35;99073.68;;;23.19;44.94
60646;BME280;46462;32.608;-117.032;2023-12-20T08:46:05;99073.83;;;23.17;44.74
60646;BME280;46462;32.608;-117.032;2023-12-20T08:48:36;99074.48;;;23.20;44.71
60646;BME280;46462;32.608;-117.032;2023-12-20T08:51:07;99073.17;;;23.17;44.75
60646;BME280;46462;32.608;-117.032;2023-12-20T08:53:37;99077.74;;;23.14;44.94
60646;BME280;46462;32.608;-117.032;2023-12-20T08:56:08;99075.11;;;23.13;44.95
60646;BME280;46462;32.608;-117.032;2023-12-20T08:58:39;99076.76;;;23.12;45.04
60646;BME280;46462;32.608;-117.032;2023-12-20T09:01:10;99077.84;;;23.12;45.27
60646;BME280;46462;32.608;-117.032;2023-12-20T09:03:40;99074.51;;;23.08;44.87
60646;BME280;46462;32.608;-117.032;2023-12-20T09:06:11;99077.26;;;23.06;44.82
60646;BME280;46462;32.608;-117.032;2023-12-20T09:08:42;99079.41;;;23.00;45.06
60646;BME280;46462;32.608;-117.032;2023-12-20T09:11:13;99078.42;;;22.96;45.25
60646;BME280;46462;32.608;-117.032;2023-12-20T09:13:44;99081.98;;;22.95;45.21
60646;BME280;46462;32.608;-117.032;2023-12-20T09:16:14;99082.12;;;23.03;45.00
60646;BME280;46462;32.608;-117.032;2023-12-20T09:18:45;99080.74;;;22.99;45.04
60646;BME280;46462;32.608;-117.032;2023-12-20T09:21:16;99083.54;;;22.94;44.98
60646;BME280;46462;32.608;-117.032;2023-12-20T09:23:46;99084.13;;;22.89;45.28
60646;BME280;46462;32.608;-117.032;2023-12-20T09:26:17;99077.59;;;22.97;45.00
60646;BME280;46462;32.608;-117.032;2023-12-20T09:28:48;99077.58;;;22.92;45.12
60646;BME280;46462;32.608;-117.032;2023-12-20T09:31:19;99073.97;;;22.84;45.42
60646;BME280;46462;32.608;-117.032;2023-12-20T09:33:49;99073.04;;;22.85;44.90
60646;BME280;46462;32.608;-117.032;2023-12-20T09:36:20;99077.12;;;22.89;44.91
60646;BME280;46462;32.608;-117.032;2023-12-20T09:38:51;99073.67;;;22.81;45.15
60646;BME280;46462;32.608;-117.032;2023-12-20T09:41:24;99071.52;;;22.83;45.12
60646;BME280;46462;32.608;-117.032;2023-12-20T09:43:55;99072.63;;;22.77;45.21
60646;BME280;46462;32.608;-117.032;2023-12-20T09:46:25;99073.38;;;22.73;45.12
60646;BME280;46462;32.608;-117.032;2023-12-20T09:48:54;99076.60;;;22.68;45.57
60646;BME280;46462;32.608;-117.032;2023-12-20T09:51:26;99074.90;;;22.68;45.64
60646;BME280;46462;32.608;-117.032;2023-12-20T09:53:56;99077.73;;;22.58;45.64
60646;BME280;46462;32.608;-117.032;2023-12-20T09:56:27;99079.76;;;22.57;45.65
60646;BME280;46462;32.608;-117.032;2023-12-20T09:58:57;99080.12;;;22.58;45.20
60646;BME280;46462;32.608;-117.032;2023-12-20T10:01:28;99075.01;;;22.57;45.16
60646;BME280;46462;32.608;-117.032;2023-12-20T10:04:00;99074.56;;;22.51;45.62
60646;BME280;46462;32.608;-117.032;2023-12-20T10:06:29;99074.12;;;22.46;45.68
60646;BME280;46462;32.608;-117.032;2023-12-20T10:09:00;99073.29;;;22.42;45.89
60646;BME280;46462;32.608;-117.032;2023-12-20T10:11:31;99071.79;;;22.44;45.70
60646;BME280;46462;32.608;-117.032;2023-12-20T10:14:02;99075.89;;;22.40;46.05
60646;BME280;46462;32.608;-117.032;2023-12-20T10:16:33;99072.47;;;22.43;45.63
60646;BME280;46462;32.608;-117.032;2023-12-20T10:19:03;99071.51;;;22.46;45.85
60646;BME280;46462;32.608;-117.032;2023-12-20T10:21:34;99075.17;;;22.39;46.02
60646;BME280;46462;32.608;-117.032;2023-12-20T10:24:05;99073.73;;;22.45;45.80
60646;BME280;46462;32.608;-117.032;2023-12-20T10:26:35;99075.33;;;22.44;45.90
60646;BME280;46462;32.608;-117.032;2023-12-20T10:29:06;99075.01;;;22.43;45.81
60646;BME280;46462;32.608;-117.032;2023-12-20T10:31:37;99070.49;;;22.49;45.64
60646;BME280;46462;32.608;-117.032;2023-12-20T10:34:08;99067.91;;;22.44;45.81
60646;BME280;46462;32.608;-117.032;2023-12-20T10:36:38;99065.85;;;22.44;45.50
60646;BME280;46462;32.608;-117.032;2023-12-20T10:39:10;99068.03;;;22.41;45.60
60646;BME280;46462;32.608;-117.032;2023-12-20T10:41:41;99068.59;;;22.40;45.65
60646;BME280;46462;32.608;-117.032;2023-12-20T10:44:11;99066.39;;;22.42;45.77
60646;BME280;46462;32.608;-117.032;2023-12-20T10:46:41;99073.30;;;22.42;45.66
60646;BME280;46462;32.608;-117.032;2023-12-20T10:49:12;99075.43;;;22.40;45.63
60646;BME280;46462;32.608;-117.032;2023-12-20T10:51:43;99075.28;;;22.42;45.68
60646;BME280;46462;32.608;-117.032;2023-12-20T10:54:13;99068.07;;;22.45;45.58
60646;BME280;46462;32.608;-117.032;2023-12-20T10:56:45;99068.24;;;22.42;45.57
60646;BME280;46462;32.608;-117.032;2023-12-20T10:59:16;99070.95;;;22.41;45.40
60646;BME280;46462;32.608;-117.032;2023-12-20T11:01:47;99072.20;;;22.38;45.37
60646;BME280;46462;32.608;-117.032;2023-12-20T11:04:22;99069.87;;;22.38;45.52
60646;BME280;46462;32.608;-117.032;2023-12-20T11:06:51;99069.90;;;22.30;45.71
60646;BME280;46462;32.608;-117.032;2023-12-20T11:09:23;99070.40;;;22.34;45.72
60646;BME280;46462;32.608;-117.032;2023-12-20T11:12:00;99068.46;;;22.32;45.71
60646;BME280;46462;32.608;-117.032;2023-12-20T11:14:25;99069.31;;;22.28;45.88
60646;BME280;46462;32.608;-117.032;2023-12-20T11:16:50;99070.83;;;22.28;45.88
60646;BME280;46462;32.608;-117.032;2023-12-20T11:19:21;99072.29;;;22.23;45.91
60646;BME280;46462;32.608;-117.032;2023-12-20T11:21:51;99068.36;;;22.23;45.99
60646;BME280;46462;32.608;-117.032;2023-12-20T11:24:23;99068.04;;;22.31;45.63
60646;BME280;46462;32.608;-117.032;2023-12-20T11:26:57;99064.71;;;22.31;45.61
60646;BME280;46462;32.608;-117.032;2023-12-20T11:29:33;99064.06;;;22.26;45.52
60646;BME280;46462;32.608;-117.032;2023-12-20T11:31:55;99066.66;;;22.21;45.84
60646;BME280;46462;32.608;-117.032;2023-12-20T11:34:29;99071.46;;;22.21;45.83
60646;BME280;46462;32.608;-117.032;2023-12-20T11:36:58;99070.46;;;22.23;45.57
60646;BME280;46462;32.608;-117.032;2023-12-20T11:39:27;99070.24;;;22.19;45.75
60646;BME280;46462;32.608;-117.032;2023-12-20T11:41:57;99069.25;;;22.26;45.71
60646;BME280;46462;32.608;-117.032;2023-12-20T11:44:31;99070.22;;;22.32;45.54
60646;BME280;46462;32.608;-117.032;2023-12-20T11:46:59;99069.23;;;22.29;45.27
60646;BME280;46462;32.608;-117.032;2023-12-20T11:49:29;99068.18;;;22.21;45.34
60646;BME280;46462;32.608;-117.032;2023-12-20T11:52:00;99067.65;;;22.15;45.40
60646;BME280;46462;32.608;-117.032;2023-12-20T11:54:31;99067.08;;;22.10;45.47
60646;BME280;46462;32.608;-117.032;2023-12-20T11:57:02;99063.15;;;22.05;45.49
60646;BME280;46462;32.608;-117.032;2023-12-20T11:59:32;99064.45;;;22.02;45.77
60646;BME280;46462;32.608;-117.032;2023-12-20T12:02:03;99067.94;;;22.03;45.65
60646;BME280;46462;32.608;-117.032;2023-12-20T12:04:35;99067.05;;;22.03;45.58
60646;BME280;46462;32.608;-117.032;2023-12-20T12:07:04;99068.08;;;22.06;45.49
60646;BME280;46462;32.608;-117.032;2023-12-20T12:09:35;99068.94;;;22.07;44.96
60646;BME280;46462;32.608;-117.032;2023-12-20T12:12:07;99069.84;;;22.07;45.19
60646;BME280;46462;32.608;-117.032;2023-12-20T12:14:37;99072.99;;;22.05;45.27
60646;BME280;46462;32.608;-117.032;2023-12-20T12:17:11;99071.63;;;22.07;45.41
60646;BME280;46462;32.608;-117.032;2023-12-20T12:19:38;99070.26;;;22.11;45.13
60646;BME280;46462;32.608;-117.032;2023-12-20T12:22:10;99074.08;;;22.18;44.89
60646;BME280;46462;32.608;-117.032;2023-12-20T12:24:40;99077.64;;;22.11;44.79
60646;BME280;46462;32.608;-117.032;2023-12-20T12:27:11;99078.11;;;22.18;44.85
60646;BME280;46462;32.608;-117.032;2023-12-20T12:29:42;99079.37;;;22.14;44.81
60646;BME280;46462;32.608;-117.032;2023-12-20T12:32:12;99077.74;;;22.09;44.44
60646;BME280;46462;32.608;-117.032;2023-12-20T12:34:43;99079.25;;;22.07;44.87
60646;BME280;46462;32.608;-117.032;2023-12-20T12:37:13;99080.95;;;22.06;44.46
60646;BME280;46462;32.608;-117.032;2023-12-20T12:39:44;99081.84;;;22.11;44.62
60646;BME280;46462;32.608;-117.032;2023-12-20T12:42:15;99083.09;;;22.10;44.41
60646;BME280;46462;32.608;-117.032;2023-12-20T12:44:46;99084.29;;;22.08;44.85
60646;BME280;46462;32.608;-117.032;2023-12-20T12:47:16;99082.33;;;22.01;44.89